Weather at Hokksund Airfield

Public forecast

Using degrees Celsius for public forecast. Weather courtesy of forecast.io.

Closest aviation weather report (METAR) to Hokksund Airfield

Report is more than 2 hours old.

Closest report is Notodden Airport, 24.4 nm (45.2 km) WSW.

2024/05/27 16:50 (retrieved 5 hours ago)

ENNO 271650Z 11007KT 9999 VCSH FEW008 FEW015CB SCT030 BKN040 19/14 Q1013

Closest aviation forecast (TAF) to Hokksund Airfield

Closest forecast is Moss Airport, Rygge, 34.9 nm (64.6 km) SE.

2024/05/27 18:38 (retrieved 4 hours ago)

TAF ENRY 271700Z 2718/2818 18008KT 9999 FEW008 BECMG 2718/2720 BKN008 PROB40 2720/2806 FEW008 BECMG 2806/2808 FEW040 TEMPO 2810/2813 SCT025TCU TEMPO 2813/2818 34015G25KT 4000 TSRA BKN018CB